createdAt,value
2018-06-27T00:01:59.869Z,10.43
2018-06-27T00:04:28.081Z,9.63
2018-06-27T00:06:56.280Z,8.53
2018-06-27T00:09:24.486Z,8.17
2018-06-27T00:11:52.679Z,8.30
2018-06-27T00:14:20.864Z,9.10
2018-06-27T00:16:49.059Z,9.13
2018-06-27T00:19:17.310Z,10.17
2018-06-27T00:21:45.449Z,8.60
2018-06-27T00:24:13.630Z,8.90
2018-06-27T00:26:41.805Z,9.27
2018-06-27T00:29:09.991Z,7.40
2018-06-27T00:31:37.918Z,10.53
2018-06-27T00:34:06.202Z,7.73
2018-06-27T00:36:34.396Z,8.40
2018-06-27T00:39:02.575Z,8.00
2018-06-27T00:41:30.763Z,8.77
2018-06-27T00:43:58.726Z,8.10
2018-06-27T00:46:26.679Z,8.87
2018-06-27T00:48:54.871Z,8.43
2018-06-27T00:51:23.288Z,7.80
2018-06-27T00:53:56.795Z,7.87
2018-06-27T00:56:24.975Z,7.73
2018-06-27T00:58:53.160Z,8.17
2018-06-27T01:01:21.348Z,9.17
2018-06-27T01:03:49.739Z,8.40
2018-06-27T01:06:17.690Z,8.70
2018-06-27T01:08:45.912Z,9.00
2018-06-27T01:11:14.123Z,7.87
2018-06-27T01:13:42.323Z,7.43
2018-06-27T01:16:10.509Z,8.83
2018-06-27T01:18:38.462Z,8.10
2018-06-27T01:21:06.685Z,8.13
2018-06-27T01:23:34.879Z,8.97
2018-06-27T01:26:03.168Z,7.63
2018-06-27T01:28:31.354Z,7.80
2018-06-27T01:30:59.531Z,8.00
2018-06-27T01:33:27.751Z,8.13
2018-06-27T01:35:55.943Z,7.37
2018-06-27T01:38:24.132Z,8.80
2018-06-27T01:40:52.327Z,8.03
2018-06-27T01:43:20.559Z,8.70
2018-06-27T01:45:48.735Z,9.50
2018-06-27T01:48:16.944Z,9.70
2018-06-27T01:50:45.124Z,8.03
2018-06-27T01:53:13.759Z,8.33
2018-06-27T01:55:41.920Z,8.53
2018-06-27T01:58:10.131Z,9.07
2018-06-27T02:00:38.558Z,8.13
2018-06-27T02:03:06.856Z,9.93
2018-06-27T02:05:35.039Z,8.80
2018-06-27T02:08:03.240Z,10.50
2018-06-27T02:10:31.432Z,10.03
2018-06-27T02:12:59.805Z,8.83
2018-06-27T02:15:28.196Z,10.10
2018-06-27T02:17:56.371Z,10.93
2018-06-27T02:20:25.013Z,7.60
2018-06-27T02:22:53.233Z,9.90
2018-06-27T02:25:21.193Z,9.60
2018-06-27T02:27:49.379Z,9.73
2018-06-27T02:30:17.311Z,9.43
2018-06-27T02:32:45.495Z,8.93
2018-06-27T02:35:13.669Z,11.00
2018-06-27T02:37:41.857Z,10.03
2018-06-27T02:40:10.062Z,11.03
2018-06-27T02:42:38.239Z,10.67
2018-06-27T02:45:06.432Z,10.97
2018-06-27T02:47:34.641Z,11.93
2018-06-27T02:50:02.814Z,11.80
2018-06-27T02:52:30.997Z,10.10
2018-06-27T02:54:59.484Z,11.27
2018-06-27T02:57:27.651Z,9.80
2018-06-27T02:59:55.840Z,10.87
2018-06-27T03:02:24.056Z,12.40
2018-06-27T03:04:52.251Z,11.37
2018-06-27T03:07:20.425Z,11.73
2018-06-27T03:09:48.611Z,12.20
2018-06-27T03:12:16.804Z,12.03
2018-06-27T03:14:44.743Z,12.03
2018-06-27T03:17:12.985Z,11.03
2018-06-27T03:19:41.169Z,13.13
2018-06-27T03:22:09.372Z,12.23
2018-06-27T03:24:37.555Z,12.97
2018-06-27T03:27:05.761Z,10.73
2018-06-27T03:29:33.949Z,11.87
2018-06-27T03:32:02.157Z,12.40
2018-06-27T03:34:30.339Z,13.03
2018-06-27T03:36:58.528Z,12.13
2018-06-27T03:39:26.704Z,13.43
2018-06-27T03:41:54.896Z,11.37
2018-06-27T03:44:22.846Z,12.23
2018-06-27T03:46:51.380Z,13.60
2018-06-27T03:49:19.650Z,12.47
2018-06-27T03:51:47.828Z,13.23
2018-06-27T03:54:16.022Z,11.00
2018-06-27T03:56:44.208Z,12.93
2018-06-27T03:59:12.393Z,12.03
2018-06-27T04:01:40.592Z,14.23
2018-06-27T04:04:08.576Z,13.60
2018-06-27T04:06:36.780Z,13.60
2018-06-27T04:09:08.628Z,13.07
2018-06-27T04:11:36.799Z,11.70
2018-06-27T04:14:05.051Z,14.63
2018-06-27T04:16:33.333Z,14.57
2018-06-27T04:19:01.528Z,12.93
2018-06-27T04:21:29.719Z,12.67
2018-06-27T04:23:58.064Z,12.57
2018-06-27T04:26:26.315Z,13.30
2018-06-27T04:28:54.340Z,14.07
2018-06-27T04:31:23.037Z,12.67
2018-06-27T04:33:51.255Z,12.93
2018-06-27T04:36:19.428Z,13.30
2018-06-27T04:38:47.617Z,14.63
2018-06-27T04:41:15.801Z,12.77
2018-06-27T04:43:43.980Z,12.90
2018-06-27T04:46:12.144Z,14.07
2018-06-27T04:48:40.360Z,13.33
2018-06-27T04:51:08.527Z,14.50
2018-06-27T04:53:36.709Z,13.20
2018-06-27T04:56:04.892Z,13.20
2018-06-27T04:58:33.060Z,13.50
2018-06-27T05:01:01.292Z,14.30
2018-06-27T05:03:29.460Z,14.50
2018-06-27T05:05:57.664Z,14.10
2018-06-27T05:08:25.848Z,12.93
2018-06-27T05:10:54.187Z,13.43
2018-06-27T05:13:22.416Z,12.10
2018-06-27T05:15:50.615Z,13.10
2018-06-27T05:18:18.568Z,12.63
2018-06-27T05:20:46.759Z,12.10
2018-06-27T05:23:14.925Z,13.00
2018-06-27T05:25:43.126Z,12.00
2018-06-27T05:28:11.335Z,13.20
2018-06-27T05:30:39.519Z,12.20
2018-06-27T05:33:07.704Z,13.73
2018-06-27T05:35:35.648Z,12.23
2018-06-27T05:38:03.924Z,12.73
2018-06-27T05:40:32.111Z,13.27
2018-06-27T05:43:00.465Z,13.17
2018-06-27T05:45:28.664Z,13.00
2018-06-27T05:47:56.848Z,10.33
2018-06-27T05:50:25.399Z,12.23
2018-06-27T05:52:53.589Z,12.83
2018-06-27T05:55:21.800Z,12.00
2018-06-27T05:57:49.996Z,10.97
2018-06-27T06:00:18.184Z,11.37
2018-06-27T06:02:46.403Z,10.40
2018-06-27T06:05:14.363Z,11.20
2018-06-27T06:07:42.587Z,11.23
2018-06-27T06:10:10.791Z,11.60
2018-06-27T06:12:38.996Z,9.93
2018-06-27T06:15:06.921Z,10.87
2018-06-27T06:17:35.116Z,11.33
2018-06-27T06:20:03.314Z,9.17
2018-06-27T06:22:31.500Z,8.50
2018-06-27T06:24:59.711Z,9.60
2018-06-27T06:27:27.892Z,9.83
2018-06-27T06:29:56.059Z,8.97
2018-06-27T06:32:24.291Z,9.40
2018-06-27T06:34:52.467Z,9.60
2018-06-27T06:37:20.657Z,8.73
2018-06-27T06:39:48.847Z,10.10
2018-06-27T06:42:17.031Z,10.33
2018-06-27T06:44:45.224Z,9.83
2018-06-27T06:47:13.400Z,10.03
2018-06-27T06:49:41.575Z,10.30
2018-06-27T06:52:09.822Z,9.93
2018-06-27T06:54:37.999Z,9.73
2018-06-27T06:57:06.179Z,8.53
2018-06-27T06:59:34.371Z,9.50
2018-06-27T07:02:02.572Z,10.50
2018-06-27T07:04:30.503Z,10.20
2018-06-27T07:06:58.773Z,10.90
2018-06-27T07:09:26.935Z,9.23
2018-06-27T07:11:55.123Z,9.90
2018-06-27T07:14:23.775Z,9.47
2018-06-27T07:16:51.973Z,9.80
2018-06-27T07:19:20.148Z,8.90
2018-06-27T07:21:48.339Z,10.87
2018-06-27T07:24:16.528Z,10.13
2018-06-27T07:26:44.696Z,9.37
2018-06-27T07:29:12.893Z,8.80
2018-06-27T07:31:41.072Z,9.10
2018-06-27T07:34:09.264Z,8.30
2018-06-27T07:36:37.469Z,8.67
2018-06-27T07:39:08.208Z,10.13
2018-06-27T07:41:36.447Z,8.97
2018-06-27T07:44:04.656Z,10.33
2018-06-27T07:46:33.335Z,8.77
2018-06-27T07:49:01.648Z,9.37
2018-06-27T07:51:29.591Z,8.73
2018-06-27T07:53:57.772Z,9.50
2018-06-27T07:56:25.976Z,10.07
2018-06-27T07:58:54.173Z,9.20
2018-06-27T08:01:22.333Z,8.93
2018-06-27T08:03:50.514Z,10.10
2018-06-27T08:06:18.700Z,8.33
2018-06-27T08:08:46.873Z,9.37
2018-06-27T08:11:15.068Z,7.80
2018-06-27T08:13:43.362Z,8.60
2018-06-27T08:16:11.591Z,9.23
2018-06-27T08:18:41.698Z,10.93
2018-06-27T08:21:10.170Z,9.50
2018-06-27T08:23:38.368Z,10.23
2018-06-27T08:26:06.601Z,9.67
2018-06-27T08:28:34.989Z,8.90
2018-06-27T08:31:03.198Z,10.90
2018-06-27T08:33:31.392Z,8.83
2018-06-27T08:35:59.572Z,10.13
2018-06-27T08:38:27.760Z,9.03
2018-06-27T08:40:55.963Z,8.33
2018-06-27T08:43:24.131Z,9.70
2018-06-27T08:45:52.335Z,9.40
2018-06-27T08:48:20.613Z,9.13
2018-06-27T08:50:48.792Z,8.93
2018-06-27T08:53:16.992Z,8.40
2018-06-27T08:55:45.199Z,7.80
2018-06-27T08:58:13.459Z,9.63
2018-06-27T09:00:41.641Z,9.10
2018-06-27T09:03:09.831Z,8.27
2018-06-27T09:05:37.786Z,8.30
2018-06-27T09:08:06.046Z,7.97
2018-06-27T09:10:34.243Z,9.23
2018-06-27T09:13:02.180Z,7.90
2018-06-27T09:15:30.389Z,8.73
2018-06-27T09:17:58.331Z,8.73
2018-06-27T09:20:26.555Z,9.20
2018-06-27T09:22:54.766Z,10.53
2018-06-27T09:25:22.945Z,8.73
2018-06-27T09:27:51.129Z,8.47
2018-06-27T09:30:19.308Z,8.80
2018-06-27T09:32:47.509Z,9.27
2018-06-27T09:35:15.751Z,9.93
2018-06-27T09:37:43.932Z,9.10
2018-06-27T09:40:12.157Z,9.87
2018-06-27T09:42:40.339Z,9.33
2018-06-27T09:45:08.528Z,10.10
2018-06-27T09:47:36.714Z,8.60
2018-06-27T09:50:05.622Z,9.90
2018-06-27T09:52:33.796Z,11.30
2018-06-27T09:55:01.795Z,10.37
2018-06-27T09:57:30.005Z,10.47
2018-06-27T09:59:58.192Z,10.40
2018-06-27T10:02:26.376Z,8.73
2018-06-27T10:04:54.571Z,9.77
2018-06-27T10:07:22.500Z,9.60
2018-06-27T10:09:50.703Z,24.93
2018-06-27T10:12:18.893Z,10.10
2018-06-27T10:14:47.097Z,14.63
2018-06-27T10:17:15.345Z,10.70
2018-06-27T10:19:43.548Z,10.60
2018-06-27T10:22:11.746Z,44.70
2018-06-27T10:24:39.956Z,11.23
2018-06-27T10:27:07.957Z,9.63
2018-06-27T10:29:36.165Z,12.27
2018-06-27T10:32:04.328Z,10.80
2018-06-27T10:34:32.517Z,16.80
2018-06-27T10:37:00.818Z,11.90
2018-06-27T10:39:29.044Z,12.27
2018-06-27T10:41:57.225Z,11.10
2018-06-27T10:44:25.462Z,10.80
2018-06-27T10:46:53.624Z,10.67
2018-06-27T10:49:21.816Z,11.10
2018-06-27T10:51:49.997Z,11.43
2018-06-27T10:54:18.747Z,10.80
2018-06-27T10:56:46.707Z,9.97
2018-06-27T10:59:14.908Z,9.40
2018-06-27T11:01:43.076Z,10.77
2018-06-27T11:04:11.290Z,11.53
2018-06-27T11:06:39.481Z,10.67
2018-06-27T11:09:08.356Z,11.13
2018-06-27T11:11:36.548Z,10.90
2018-06-27T11:14:04.829Z,11.73
2018-06-27T11:16:33.004Z,9.80
2018-06-27T11:19:01.230Z,12.17
2018-06-27T11:21:29.476Z,11.50
2018-06-27T11:23:57.653Z,10.40
2018-06-27T11:26:25.608Z,12.47
2018-06-27T11:28:53.788Z,12.00
2018-06-27T11:31:21.748Z,10.80
2018-06-27T11:33:49.936Z,11.70
2018-06-27T11:36:17.884Z,11.57
2018-06-27T11:38:46.140Z,11.57
2018-06-27T11:41:14.335Z,11.73
2018-06-27T11:43:42.529Z,13.30
2018-06-27T11:46:10.480Z,13.47
2018-06-27T11:48:38.682Z,12.20
2018-06-27T11:51:06.861Z,13.33
2018-06-27T11:53:35.056Z,12.03
2018-06-27T11:56:03.264Z,11.30
2018-06-27T11:58:31.448Z,12.07
2018-06-27T12:00:59.636Z,12.43
2018-06-27T12:03:27.601Z,13.70
2018-06-27T12:05:55.803Z,14.00
2018-06-27T12:08:24.066Z,13.03
2018-06-27T12:10:52.228Z,15.10
2018-06-27T12:13:20.183Z,13.17
2018-06-27T12:15:48.366Z,13.50
2018-06-27T12:18:16.296Z,12.30
2018-06-27T12:20:44.553Z,11.53
2018-06-27T12:23:12.756Z,12.80
2018-06-27T12:25:40.942Z,11.87
2018-06-27T12:28:09.137Z,13.53
2018-06-27T12:30:37.087Z,14.93
2018-06-27T12:33:05.268Z,13.30
2018-06-27T12:35:33.231Z,13.47
2018-06-27T12:38:01.425Z,15.23
2018-06-27T12:40:29.728Z,14.73
2018-06-27T12:42:57.923Z,14.43
2018-06-27T12:45:26.109Z,12.90
2018-06-27T12:47:54.319Z,14.17
2018-06-27T12:50:22.269Z,15.83
2018-06-27T12:52:50.507Z,15.60
2018-06-27T12:55:18.688Z,14.97
2018-06-27T12:57:46.865Z,14.40
2018-06-27T13:00:15.143Z,16.33
2018-06-27T13:02:43.332Z,14.77
2018-06-27T13:05:11.527Z,15.70
2018-06-27T13:07:39.495Z,15.53
2018-06-27T13:10:07.854Z,14.20
2018-06-27T13:12:36.272Z,15.70
2018-06-27T13:15:05.353Z,16.07
2018-06-27T13:17:33.291Z,14.57
2018-06-27T13:20:01.464Z,13.80
2018-06-27T13:22:30.210Z,15.57
2018-06-27T13:24:58.392Z,13.00
2018-06-27T13:27:26.633Z,13.43
2018-06-27T13:29:54.584Z,13.57
2018-06-27T13:32:22.707Z,15.73
2018-06-27T13:34:51.220Z,14.50
2018-06-27T13:37:19.387Z,15.30
2018-06-27T13:39:47.637Z,15.30
2018-06-27T13:42:16.029Z,15.03
2018-06-27T13:44:44.239Z,14.83
2018-06-27T13:47:12.473Z,15.90
2018-06-27T13:49:40.682Z,14.43
2018-06-27T13:52:08.889Z,16.33
2018-06-27T13:54:37.074Z,14.70
2018-06-27T13:57:05.271Z,15.20
2018-06-27T13:59:33.457Z,15.50
2018-06-27T14:02:01.653Z,13.77
2018-06-27T14:04:29.856Z,13.70
2018-06-27T14:06:57.789Z,14.70
2018-06-27T14:09:26.055Z,14.10
2018-06-27T14:11:54.240Z,14.97
2018-06-27T14:14:22.438Z,14.67
2018-06-27T14:16:50.367Z,16.30
2018-06-27T14:19:18.573Z,14.70
2018-06-27T14:21:46.511Z,15.27
2018-06-27T14:24:14.800Z,13.93
2018-06-27T14:26:42.936Z,14.20
2018-06-27T14:29:11.126Z,14.80
2018-06-27T14:31:39.383Z,13.90
2018-06-27T14:34:07.565Z,16.07
2018-06-27T14:36:35.742Z,13.37
2018-06-27T14:39:05.816Z,14.33
2018-06-27T14:41:33.760Z,16.47
2018-06-27T14:44:02.100Z,15.23
2018-06-27T14:46:30.213Z,13.90
2018-06-27T14:48:58.333Z,15.73
2018-06-27T14:51:26.542Z,14.83
2018-06-27T14:53:54.729Z,15.50
2018-06-27T14:56:24.440Z,15.67
2018-06-27T14:58:52.648Z,14.20
2018-06-27T15:01:20.877Z,13.73
2018-06-27T15:03:49.073Z,12.80
2018-06-27T15:06:17.013Z,12.30
2018-06-27T15:08:45.450Z,12.70
2018-06-27T15:11:13.641Z,14.07
2018-06-27T15:13:41.983Z,14.80
2018-06-27T15:16:10.192Z,13.70
2018-06-27T15:18:39.893Z,13.23
2018-06-27T15:21:08.137Z,14.10
2018-06-27T15:23:36.229Z,14.40
2018-06-27T15:26:04.888Z,12.60
2018-06-27T15:28:32.872Z,14.03
2018-06-27T15:31:01.104Z,13.77
2018-06-27T15:33:29.348Z,12.97
2018-06-27T15:35:57.516Z,14.77
2018-06-27T15:38:25.737Z,12.83
2018-06-27T15:40:53.928Z,15.00
2018-06-27T15:43:21.887Z,11.70
2018-06-27T15:45:49.839Z,14.73
2018-06-27T15:48:18.134Z,13.13
2018-06-27T15:50:46.403Z,13.50
2018-06-27T15:53:14.634Z,12.30
2018-06-27T15:55:42.838Z,11.63
2018-06-27T15:58:11.066Z,13.47
2018-06-27T16:00:39.264Z,13.50
2018-06-27T16:03:07.509Z,13.70
2018-06-27T16:05:35.696Z,15.03
2018-06-27T16:08:03.917Z,13.63
2018-06-27T16:10:32.200Z,12.37
2018-06-27T16:13:01.093Z,13.03
2018-06-27T16:15:29.292Z,13.67
2018-06-27T16:17:57.461Z,13.87
2018-06-27T16:20:27.712Z,17.80
2018-06-27T16:22:55.884Z,15.30
2018-06-27T16:25:24.072Z,14.80
2018-06-27T16:27:52.281Z,12.63
2018-06-27T16:30:20.513Z,12.37
2018-06-27T16:32:48.728Z,13.20
2018-06-27T16:35:16.923Z,12.10
2018-06-27T16:37:45.137Z,12.37
2018-06-27T16:40:13.316Z,11.93
2018-06-27T16:42:41.628Z,12.97
2018-06-27T16:45:09.892Z,11.57
2018-06-27T16:47:38.077Z,11.83
2018-06-27T16:50:06.777Z,13.17
2018-06-27T16:52:34.759Z,10.50
2018-06-27T16:55:03.058Z,11.73
2018-06-27T16:57:31.227Z,10.40
2018-06-27T16:59:59.426Z,11.57
2018-06-27T17:02:27.680Z,11.67
2018-06-27T17:04:55.888Z,10.13
2018-06-27T17:07:24.861Z,11.40
2018-06-27T17:09:53.100Z,11.47
2018-06-27T17:12:21.303Z,8.77
2018-06-27T17:14:49.512Z,9.17
2018-06-27T17:17:17.749Z,9.10
2018-06-27T17:19:46.020Z,10.93
2018-06-27T17:22:14.229Z,10.13
2018-06-27T17:24:42.636Z,9.53
2018-06-27T17:27:10.605Z,8.63
2018-06-27T17:29:38.542Z,8.23
2018-06-27T17:32:06.777Z,10.77
2018-06-27T17:34:35.040Z,10.87
2018-06-27T17:37:03.244Z,10.00
2018-06-27T17:39:31.461Z,8.87
2018-06-27T17:41:59.674Z,8.80
2018-06-27T17:44:27.882Z,9.07
2018-06-27T17:46:56.157Z,9.67
2018-06-27T17:49:24.399Z,9.50
2018-06-27T17:51:52.652Z,10.30
2018-06-27T17:54:20.611Z,8.63
2018-06-27T17:56:48.565Z,8.73
2018-06-27T17:59:16.827Z,9.93
2018-06-27T18:01:45.017Z,8.80
2018-06-27T18:04:13.208Z,9.50
2018-06-27T18:06:41.177Z,9.10
2018-06-27T18:09:09.621Z,9.37
2018-06-27T18:11:38.365Z,9.30
2018-06-27T18:14:06.594Z,8.90
2018-06-27T18:16:35.357Z,10.00
2018-06-27T18:19:03.628Z,10.93
2018-06-27T18:21:32.101Z,10.37
2018-06-27T18:24:00.296Z,10.20
2018-06-27T18:26:28.506Z,9.70
2018-06-27T18:28:56.734Z,11.67
2018-06-27T18:31:24.981Z,10.37
2018-06-27T18:33:53.255Z,11.10
2018-06-27T18:36:21.548Z,9.87
2018-06-27T18:38:49.725Z,10.97
2018-06-27T18:41:17.974Z,10.97
2018-06-27T18:43:46.252Z,11.30
2018-06-27T18:46:14.520Z,10.03
2018-06-27T18:48:42.749Z,9.20
2018-06-27T18:51:10.969Z,9.90
2018-06-27T18:53:38.964Z,9.73
2018-06-27T18:56:07.177Z,9.83
2018-06-27T18:58:35.408Z,9.87
2018-06-27T19:01:03.605Z,9.23
2018-06-27T19:03:31.820Z,9.37
2018-06-27T19:05:59.827Z,9.37
2018-06-27T19:08:28.013Z,8.63
2018-06-27T19:10:56.179Z,9.10
2018-06-27T19:13:24.497Z,10.60
2018-06-27T19:15:53.556Z,10.73
2018-06-27T19:18:21.928Z,12.67
2018-06-27T19:20:50.115Z,12.97
2018-06-27T19:23:18.343Z,12.43
2018-06-27T19:25:46.379Z,14.00
2018-06-27T19:28:14.597Z,13.60
2018-06-27T19:30:42.855Z,14.00
2018-06-27T19:33:11.467Z,14.33
2018-06-27T19:35:39.657Z,15.33
2018-06-27T19:38:07.857Z,14.67
2018-06-27T19:40:36.056Z,14.30
2018-06-27T19:43:04.326Z,13.83
2018-06-27T19:45:32.531Z,14.17
2018-06-27T19:48:00.461Z,15.70
2018-06-27T19:50:28.880Z,15.50
2018-06-27T19:52:57.104Z,17.70
2018-06-27T19:55:25.350Z,16.77
2018-06-27T19:57:53.618Z,17.07
2018-06-27T20:00:21.850Z,18.23
2018-06-27T20:02:50.037Z,17.90
2018-06-27T20:05:17.987Z,17.97
2018-06-27T20:07:46.297Z,16.90
2018-06-27T20:10:14.583Z,15.70
2018-06-27T20:12:42.778Z,18.00
2018-06-27T20:15:11.072Z,15.90
2018-06-27T20:17:39.186Z,17.70
2018-06-27T20:20:07.404Z,17.00
2018-06-27T20:22:35.608Z,16.93
2018-06-27T20:25:03.816Z,17.27
2018-06-27T20:27:31.990Z,18.70
2018-06-27T20:30:06.604Z,17.63
2018-06-27T20:32:34.536Z,17.73
2018-06-27T20:35:02.729Z,17.53
2018-06-27T20:37:30.979Z,16.80
2018-06-27T20:39:59.153Z,17.70
2018-06-27T20:42:27.337Z,16.50
2018-06-27T20:44:55.545Z,17.83
2018-06-27T20:47:23.567Z,17.07
2018-06-27T20:49:51.764Z,17.30
2018-06-27T20:52:19.982Z,16.90
2018-06-27T20:54:48.169Z,15.10
2018-06-27T20:57:16.360Z,17.57
2018-06-27T20:59:44.554Z,17.63
2018-06-27T21:02:12.803Z,16.00
2018-06-27T21:04:40.980Z,18.77
2018-06-27T21:07:09.236Z,18.50
2018-06-27T21:09:37.431Z,18.07
2018-06-27T21:12:05.800Z,17.30
2018-06-27T21:14:34.031Z,17.70
2018-06-27T21:17:02.216Z,17.43
2018-06-27T21:19:30.398Z,16.63
2018-06-27T21:21:58.605Z,18.60
2018-06-27T21:24:26.812Z,18.67
2018-06-27T21:26:55.036Z,16.80
2018-06-27T21:29:23.371Z,19.60
2018-06-27T21:31:51.989Z,17.70
2018-06-27T21:34:20.271Z,17.37
2018-06-27T21:36:48.472Z,16.70
2018-06-27T21:39:16.667Z,17.67
2018-06-27T21:41:44.865Z,18.37
2018-06-27T21:44:13.266Z,18.40
2018-06-27T21:46:41.443Z,18.43
2018-06-27T21:49:09.636Z,20.27
2018-06-27T21:51:37.833Z,18.20
2018-06-27T21:54:06.033Z,17.10
2018-06-27T21:56:34.234Z,16.60
2018-06-27T21:59:02.415Z,17.67
2018-06-27T22:01:30.608Z,19.10
2018-06-27T22:03:58.800Z,17.30
2018-06-27T22:06:27.069Z,17.93
2018-06-27T22:08:55.277Z,16.83
2018-06-27T22:11:23.507Z,17.67
2018-06-27T22:13:51.699Z,17.60
2018-06-27T22:16:19.895Z,17.00
2018-06-27T22:18:48.384Z,15.90
2018-06-27T22:21:16.836Z,16.43
2018-06-27T22:23:45.030Z,17.33
2018-06-27T22:26:13.349Z,17.60
2018-06-27T22:28:41.597Z,17.13
2018-06-27T22:31:10.098Z,18.03
2018-06-27T22:33:38.660Z,18.40
2018-06-27T22:36:06.955Z,17.27
2018-06-27T22:38:35.116Z,18.17
2018-06-27T22:41:03.328Z,17.23
2018-06-27T22:43:31.537Z,18.37
2018-06-27T22:45:59.888Z,18.23
2018-06-27T22:48:28.068Z,16.80
2018-06-27T22:50:56.292Z,17.07
2018-06-27T22:53:24.505Z,17.43
2018-06-27T22:55:52.696Z,18.60
2018-06-27T22:58:20.884Z,17.70
2018-06-27T23:00:49.084Z,17.17
2018-06-27T23:03:17.281Z,16.37
2018-06-27T23:05:45.477Z,18.70
2018-06-27T23:08:13.644Z,15.63
2018-06-27T23:10:41.872Z,15.17
2018-06-27T23:13:10.048Z,17.97
2018-06-27T23:15:38.230Z,17.07
2018-06-27T23:18:06.429Z,17.30
2018-06-27T23:20:34.592Z,18.30
2018-06-27T23:23:02.812Z,17.53
2018-06-27T23:25:31.004Z,18.57
2018-06-27T23:27:59.220Z,17.20
2018-06-27T23:30:27.404Z,17.37
2018-06-27T23:32:55.578Z,17.73
2018-06-27T23:35:23.781Z,19.23
2018-06-27T23:37:51.985Z,16.47
2018-06-27T23:40:20.200Z,19.10
2018-06-27T23:42:48.376Z,18.60
2018-06-27T23:45:16.568Z,20.10
2018-06-27T23:47:44.784Z,18.23
2018-06-27T23:50:12.984Z,17.97
2018-06-27T23:52:41.181Z,17.77
2018-06-27T23:55:09.405Z,16.83
2018-06-27T23:57:37.371Z,16.50
